Time;durP1;ratioP1;P1;durP2;ratioP2;P2;SDS_P1;SDS_P2;PMS_P1;PMS_P2;Temp;Humidity;BMP_temperature;BMP_pressure;BME280_temperature;BME280_humidity;BME280_pressure;Samples;Min_cycle;Max_cycle;Signal;HPM_P1;HPM_P2
2023/03/09 00:01:40;;;;;;;33.47;17.92;;;;;;;0.93;100.00;99269.91;5007499;28;20117;-58
2023/03/09 00:04:06;;;;;;;34.85;18.38;;;;;;;0.78;100.00;99278.84;5008544;28;20133;-58
2023/03/09 00:06:32;;;;;;;34.03;17.25;;;;;;;0.92;100.00;99293.28;5007596;28;20026;-60
2023/03/09 00:08:58;;;;;;;34.45;18.08;;;;;;;0.98;100.00;99293.16;5008253;28;20034;-58
2023/03/09 00:11:24;;;;;;;36.40;17.58;;;;;;;1.04;100.00;99281.81;5011845;28;20030;-61
2023/03/09 00:13:50;;;;;;;32.90;18.10;;;;;;;0.81;100.00;99280.53;5011417;28;20030;-58
2023/03/09 00:16:17;;;;;;;31.98;17.10;;;;;;;0.88;100.00;99287.31;5012061;28;20030;-59
2023/03/09 00:18:43;;;;;;;34.38;17.70;;;;;;;0.88;100.00;99287.31;5010932;28;20026;-58
2023/03/09 00:21:14;;;;;;;33.33;17.73;;;;;;;0.81;100.00;99290.91;5010692;28;20033;-61
2023/03/09 00:23:41;;;;;;;30.88;16.55;;;;;;;0.87;100.00;99286.44;5011375;28;20022;-59
2023/03/09 00:26:06;;;;;;;27.70;15.65;;;;;;;0.80;100.00;99286.59;5012251;28;20459;-58
2023/03/09 00:28:32;;;;;;;36.28;17.67;;;;;;;0.77;100.00;99294.41;5009719;28;20037;-58
2023/03/09 00:31:05;;;;;;;37.83;17.35;;;;;;;0.90;100.00;99308.88;5011423;28;20026;-61
2023/03/09 00:33:31;;;;;;;33.53;15.82;;;;;;;0.98;100.00;99322.56;5010613;28;20098;-58
2023/03/09 00:35:57;;;;;;;32.17;16.75;;;;;;;1.08;100.00;99325.00;5011605;28;20513;-58
2023/03/09 00:38:22;;;;;;;29.65;15.77;;;;;;;1.08;100.00;99336.22;5011348;28;20057;-59
2023/03/09 00:40:47;;;;;;;31.33;16.48;;;;;;;1.16;100.00;99337.81;5010557;28;20070;-58
2023/03/09 00:43:13;;;;;;;33.33;17.00;;;;;;;1.14;100.00;99332.63;5009272;28;20056;-58
2023/03/09 00:45:38;;;;;;;31.83;17.33;;;;;;;1.12;100.00;99322.28;5010970;28;20026;-62
2023/03/09 00:48:04;;;;;;;31.10;16.63;;;;;;;1.23;100.00;99318.63;5012435;28;20102;-58
2023/03/09 00:50:29;;;;;;;30.42;16.65;;;;;;;1.29;100.00;99310.72;5010949;28;20022;-60
2023/03/09 00:52:54;;;;;;;29.05;16.95;;;;;;;1.30;100.00;99324.56;5027365;28;20034;-58
2023/03/09 00:55:20;;;;;;;26.52;15.60;;;;;;;1.18;100.00;99336.03;5030946;28;20037;-60
2023/03/09 00:57:45;;;;;;;29.17;16.77;;;;;;;1.31;100.00;99326.25;5029298;28;20029;-57
2023/03/09 01:00:11;;;;;;;32.25;17.88;;;;;;;1.17;100.00;99318.78;5030174;28;20032;-61
2023/03/09 01:02:36;;;;;;;35.63;17.13;;;;;;;1.22;100.00;99320.38;5030579;28;20017;-58
2023/03/09 01:05:02;;;;;;;31.65;17.63;;;;;;;1.32;100.00;99328.00;5030607;28;20528;-58
2023/03/09 01:07:29;;;;;;;31.42;16.90;;;;;;;1.02;100.00;99314.72;5025322;28;20036;-63
2023/03/09 01:09:55;;;;;;;33.55;17.10;;;;;;;1.25;100.00;99325.53;5009513;28;20030;-58
2023/03/09 01:12:20;;;;;;;29.15;16.38;;;;;;;1.28;100.00;99336.69;5008960;28;20386;-59
2023/03/09 01:14:47;;;;;;;25.25;13.90;;;;;;;1.06;100.00;99342.31;5011265;28;20053;-59
2023/03/09 01:17:12;;;;;;;28.58;14.60;;;;;;;1.04;100.00;99338.88;5010306;28;20030;-63
2023/03/09 01:19:38;;;;;;;23.92;13.23;;;;;;;1.20;100.00;99353.28;5011403;28;20041;-58
2023/03/09 01:22:03;;;;;;;22.38;12.77;;;;;;;0.96;100.00;99352.84;5027646;28;20021;-58
2023/03/09 01:24:29;;;;;;;20.98;12.15;;;;;;;1.00;100.00;99372.66;5029437;28;20535;-62
2023/03/09 01:26:54;;;;;;;18.88;11.40;;;;;;;1.03;100.00;99384.75;5030096;28;20037;-59
2023/03/09 01:29:19;;;;;;;22.27;11.40;;;;;;;1.15;100.00;99396.63;5028708;28;20026;-59
2023/03/09 01:31:45;;;;;;;21.20;11.68;;;;;;;1.06;100.00;99389.00;5030157;28;20017;-58
2023/03/09 01:34:12;;;;;;;19.52;10.52;;;;;;;0.99;100.00;99378.75;5029332;28;20076;-59
2023/03/09 01:36:39;;;;;;;17.77;11.52;;;;;;;1.20;100.00;99368.84;5023675;28;20371;-59
2023/03/09 01:39:04;;;;;;;19.38;11.75;;;;;;;1.23;100.00;99360.16;5009783;28;20018;-59
2023/03/09 01:41:29;;;;;;;23.35;12.02;;;;;;;1.13;100.00;99370.72;5009561;28;20026;-58
2023/03/09 01:43:55;;;;;;;23.67;11.75;;;;;;;1.13;100.00;99362.94;5009352;28;20022;-62
2023/03/09 01:46:20;;;;;;;18.98;11.13;;;;;;;1.15;100.00;99351.66;5028319;28;20095;-59
2023/03/09 01:48:49;;;;;;;19.92;12.32;;;;;;;1.08;100.00;99363.91;5028066;28;20533;-60
2023/03/09 01:51:14;;;;;;;20.48;13.40;;;;;;;0.96;100.00;99368.41;5029676;28;20044;-60
2023/03/09 01:53:40;;;;;;;21.73;12.25;;;;;;;0.94;100.00;99390.97;5014099;28;20474;-60
2023/03/09 01:56:06;;;;;;;21.17;12.15;;;;;;;1.07;100.00;99388.13;5008274;28;20030;-58
2023/03/09 01:58:31;;;;;;;21.95;11.48;;;;;;;1.09;100.00;99383.78;5017672;28;20033;-59
2023/03/09 02:00:57;;;;;;;20.25;11.88;;;;;;;1.02;100.00;99395.16;5026354;28;20087;-59
2023/03/09 02:03:30;;;;;;;19.73;12.10;;;;;;;1.04;100.00;99393.38;5006925;28;20029;-59
2023/03/09 02:06:02;;;;;;;23.08;12.52;;;;;;;1.05;100.00;99401.13;5008232;28;20050;-59
2023/03/09 02:11:11;;;;;;;20.35;10.95;;;;;;;1.15;100.00;99407.03;5043025;26;20049;-56
2023/03/09 02:13:42;;;;;;;18.25;11.23;;;;;;;1.10;100.00;99398.44;5047059;28;20060;-55
2023/03/09 02:16:07;;;;;;;16.80;10.75;;;;;;;1.16;100.00;99397.47;5030885;28;20136;-56
2023/03/09 02:18:33;;;;;;;16.55;10.52;;;;;;;1.13;100.00;99406.19;5029727;28;20525;-57
2023/03/09 02:21:16;;;;;;;19.67;11.20;;;;;;;1.09;100.00;99407.13;5027429;28;20048;-57
2023/03/09 02:24:10;;;;;;;15.00;9.63;;;;;;;1.16;100.00;99403.53;5028378;28;20033;-58
2023/03/09 02:26:57;;;;;;;15.98;10.05;;;;;;;1.18;100.00;99404.38;5010734;28;20120;-58
2023/03/09 02:29:23;;;;;;;16.38;10.20;;;;;;;1.15;100.00;99403.56;5009898;28;20513;-57
2023/03/09 02:31:48;;;;;;;16.63;10.13;;;;;;;1.08;100.00;99403.66;5010222;28;20033;-58
2023/03/09 02:34:14;;;;;;;18.38;10.98;;;;;;;1.15;100.00;99424.31;5042154;28;20033;-58
2023/03/09 02:36:39;;;;;;;16.55;9.93;;;;;;;1.24;100.00;99434.53;5047292;28;20033;-57
2023/03/09 02:39:14;;;;;;;15.40;10.07;;;;;;;1.37;100.00;99440.34;5047936;28;20020;-58
2023/03/09 02:41:39;;;;;;;15.57;10.52;;;;;;;1.26;100.00;99438.81;5037463;28;20048;-56
2023/03/09 02:44:04;;;;;;;16.60;9.98;;;;;;;1.38;100.00;99419.56;5027271;28;20722;-55
2023/03/09 02:46:30;;;;;;;17.35;10.75;;;;;;;1.37;100.00;99411.78;5009646;28;20377;-58
2023/03/09 02:48:55;;;;;;;19.73;11.73;;;;;;;1.17;100.00;99422.56;5027629;28;20101;-58
2023/03/09 02:51:20;;;;;;;17.60;11.25;;;;;;;1.24;100.00;99418.97;5027396;28;20025;-58
2023/03/09 02:53:46;;;;;;;15.57;10.23;;;;;;;1.32;100.00;99422.25;5027076;28;20676;-56
2023/03/09 02:56:11;;;;;;;15.40;10.00;;;;;;;1.35;100.00;99431.72;5028095;28;20049;-56
2023/03/09 02:58:37;;;;;;;18.38;10.82;;;;;;;1.44;100.00;99423.78;5027171;28;20461;-57
2023/03/09 03:01:02;;;;;;;16.83;10.25;;;;;;;1.40;100.00;99427.31;5009678;28;20035;-56
2023/03/09 03:03:28;;;;;;;18.38;10.88;;;;;;;1.48;100.00;99438.41;5027604;28;20136;-55
2023/03/09 03:05:53;;;;;;;15.10;9.27;;;;;;;1.50;100.00;99431.44;5040420;28;20029;-56
2023/03/09 03:08:18;;;;;;;14.52;10.07;;;;;;;1.49;100.00;99441.88;5046985;28;20033;-58
2023/03/09 03:10:44;;;;;;;18.25;10.32;;;;;;;1.53;100.00;99450.47;5009602;28;1078818;-56
2023/03/09 03:13:09;;;;;;;15.25;9.95;;;;;;;1.54;100.00;99441.78;5046698;28;20032;-57
2023/03/09 03:15:35;;;;;;;15.05;9.80;;;;;;;1.33;100.00;99439.56;5047700;28;20480;-59
2023/03/09 03:18:00;;;;;;;18.40;10.63;;;;;;;1.34;100.00;99445.59;5047710;28;20056;-56
2023/03/09 03:20:26;;;;;;;16.13;10.02;;;;;;;1.34;100.00;99451.66;5047242;28;20075;-56
2023/03/09 03:22:51;;;;;;;17.63;10.52;;;;;;;1.17;100.00;99454.53;5047425;28;20091;-56
2023/03/09 03:25:17;;;;;;;18.75;10.73;;;;;;;1.15;100.00;99450.25;5021411;28;20025;-56
2023/03/09 03:27:43;;;;;;;18.90;11.02;;;;;;;1.25;100.00;99444.91;5027267;28;20025;-57
2023/03/09 03:30:09;;;;;;;19.00;10.57;;;;;;;1.24;100.00;99443.16;5027591;28;20488;-59
2023/03/09 03:32:35;;;;;;;16.88;10.55;;;;;;;1.18;100.00;99451.06;5028263;28;20033;-58
2023/03/09 03:35:00;;;;;;;18.65;10.10;;;;;;;0.97;100.00;99460.91;5028334;28;20032;-57
2023/03/09 03:37:25;;;;;;;18.10;10.88;;;;;;;1.13;100.00;99473.63;5033315;28;20021;-57
2023/03/09 03:39:51;;;;;;;16.25;10.40;;;;;;;1.19;100.00;99478.72;5048401;28;20029;-56
2023/03/09 03:42:16;;;;;;;18.20;10.45;;;;;;;1.38;100.00;99474.06;5030644;28;20025;-55
2023/03/09 03:44:42;;;;;;;18.17;10.00;;;;;;;1.30;100.00;99467.31;5030004;28;20082;-56
2023/03/09 03:47:07;;;;;;;14.25;9.27;;;;;;;1.37;100.00;99467.19;5031583;28;20473;-58
2023/03/09 03:49:32;;;;;;;17.05;10.15;;;;;;;1.30;100.00;99480.28;5031291;28;20392;-57
2023/03/09 03:51:58;;;;;;;17.42;10.30;;;;;;;1.22;100.00;99485.59;5031696;28;20668;-58
2023/03/09 03:54:23;;;;;;;20.40;10.63;;;;;;;1.23;100.00;99495.94;5031186;28;20469;-56
2023/03/09 03:56:49;;;;;;;19.80;10.75;;;;;;;1.35;100.00;99499.22;5035563;28;20020;-63
2023/03/09 03:59:14;;;;;;;18.20;10.35;;;;;;;1.42;100.00;99523.34;5051221;28;20024;-56
2023/03/09 04:01:39;;;;;;;16.80;11.23;;;;;;;1.22;100.00;99524.53;5050235;28;20028;-59
2023/03/09 04:04:05;;;;;;;16.08;10.75;;;;;;;1.26;100.00;99528.78;5052221;28;20021;-56
2023/03/09 04:06:32;;;;;;;14.30;9.25;;;;;;;1.24;100.00;99539.19;5031515;28;20453;-58
2023/03/09 04:08:57;;;;;;;16.70;10.73;;;;;;;1.29;100.00;99541.69;5041818;28;20452;-54
2023/03/09 04:11:23;;;;;;;20.25;10.75;;;;;;;1.31;100.00;99542.53;5033651;28;20196;-57
2023/03/09 04:13:49;;;;;;;16.33;10.07;;;;;;;1.34;100.00;99541.63;5036747;28;20024;-56
2023/03/09 04:16:14;;;;;;;18.30;9.95;;;;;;;1.29;100.00;99546.06;5031067;28;20365;-57
2023/03/09 04:18:40;;;;;;;17.05;10.07;;;;;;;1.35;100.00;99536.41;5031034;28;20025;-58
2023/03/09 04:21:05;;;;;;;16.50;9.70;;;;;;;1.25;100.00;99551.28;5033319;28;20044;-58
2023/03/09 04:23:30;;;;;;;14.15;9.80;;;;;;;1.26;100.00;99555.59;5030215;28;20163;-58
2023/03/09 04:25:57;;;;;;;16.75;10.52;;;;;;;1.29;100.00;99566.81;5029876;28;20435;-57
2023/03/09 04:28:23;;;;;;;17.02;9.82;;;;;;;1.38;100.00;99564.91;5030117;28;20485;-57
2023/03/09 04:30:48;;;;;;;18.23;9.43;;;;;;;1.37;100.00;99564.94;5043493;28;20055;-58
2023/03/09 04:33:13;;;;;;;16.15;9.90;;;;;;;1.24;100.00;99562.53;5050723;28;20117;-55
2023/03/09 04:35:39;;;;;;;15.75;9.82;;;;;;;1.22;100.00;99563.44;5050605;28;20029;-60
2023/03/09 04:38:04;;;;;;;18.27;9.90;;;;;;;1.22;100.00;99569.50;5050888;28;20024;-56
2023/03/09 04:40:30;;;;;;;18.70;10.05;;;;;;;1.24;100.00;99565.13;5050326;28;20057;-58
2023/03/09 04:42:55;;;;;;;18.15;11.20;;;;;;;1.25;100.00;99566.00;5049417;28;20033;-57
2023/03/09 04:45:21;;;;;;;17.58;9.75;;;;;;;1.29;100.00;99577.19;5049573;28;20052;-58
2023/03/09 04:47:46;;;;;;;16.52;9.50;;;;;;;1.31;100.00;99571.09;5032771;28;20736;-58
2023/03/09 04:50:11;;;;;;;18.98;9.77;;;;;;;1.40;100.00;99572.69;5048603;28;20039;-56
2023/03/09 04:52:37;;;;;;;17.00;9.73;;;;;;;1.46;100.00;99584.69;5050798;28;20025;-54
2023/03/09 04:55:02;;;;;;;14.13;9.55;;;;;;;1.31;100.00;99589.25;5049919;28;20040;-57
2023/03/09 04:57:27;;;;;;;17.08;11.27;;;;;;;1.07;100.00;99588.75;5049366;28;20029;-57
2023/03/09 04:59:53;;;;;;;19.83;11.25;;;;;;;1.00;100.00;99598.34;5050967;28;20021;-53
2023/03/09 05:02:18;;;;;;;18.33;10.98;;;;;;;1.24;100.00;99590.25;5049815;28;20029;-56
2023/03/09 05:04:43;;;;;;;18.33;10.57;;;;;;;1.19;100.00;99584.25;5031589;28;20029;-56
2023/03/09 05:07:09;;;;;;;19.98;11.18;;;;;;;1.18;100.00;99580.81;5049752;28;20029;-56
2023/03/09 05:09:34;;;;;;;18.70;10.85;;;;;;;1.24;100.00;99574.69;5049731;28;20049;-55
2023/03/09 05:12:00;;;;;;;16.30;10.32;;;;;;;1.36;100.00;99579.66;5049429;28;20021;-58
2023/03/09 05:14:25;;;;;;;20.52;11.43;;;;;;;1.46;100.00;99580.38;5042429;28;20031;-59
2023/03/09 05:16:51;;;;;;;19.77;10.70;;;;;;;1.32;100.00;99582.34;5032310;28;20022;-56
2023/03/09 05:19:20;;;;;;;18.38;11.18;;;;;;;1.32;100.00;99578.00;5050100;28;20025;-56
2023/03/09 05:21:45;;;;;;;19.88;11.25;;;;;;;1.39;100.00;99568.38;5058697;28;20016;-57
2023/03/09 05:24:10;;;;;;;18.50;11.82;;;;;;;1.46;100.00;99569.13;5050338;28;20029;-56
2023/03/09 05:26:36;;;;;;;20.55;12.70;;;;;;;1.50;100.00;99575.97;5049479;28;20029;-56
2023/03/09 05:29:01;;;;;;;19.13;11.77;;;;;;;1.57;100.00;99587.13;5049691;28;20075;-56
2023/03/09 05:31:26;;;;;;;21.20;12.60;;;;;;;1.44;100.00;99596.88;5039398;28;20363;-57
2023/03/09 05:33:52;;;;;;;22.52;13.13;;;;;;;1.64;100.00;99594.78;5021624;28;20112;-56
2023/03/09 05:36:23;;;;;;;21.83;12.95;;;;;;;1.57;100.00;99600.09;5040780;28;20025;-56
2023/03/09 05:38:49;;;;;;;19.38;12.27;;;;;;;1.58;100.00;99618.25;5049787;28;20019;-55
2023/03/09 05:41:15;;;;;;;23.05;12.88;;;;;;;1.45;100.00;99624.53;5049617;28;20520;-55
2023/03/09 05:43:41;;;;;;;22.50;13.45;;;;;;;1.44;100.00;99622.81;5040946;28;20029;-56
2023/03/09 05:46:08;;;;;;;25.17;14.10;;;;;;;1.35;100.00;99623.78;5042443;28;20020;-56
2023/03/09 05:48:33;;;;;;;25.23;13.80;;;;;;;1.51;100.00;99629.63;5049824;28;20036;-56
2023/03/09 05:51:00;;;;;;;26.98;14.32;;;;;;;1.50;100.00;99628.75;5031242;28;20075;-58
2023/03/09 05:53:25;;;;;;;25.20;14.98;;;;;;;1.57;100.00;99619.16;5048168;28;20028;-56
2023/03/09 05:55:52;;;;;;;26.08;15.13;;;;;;;1.55;100.00;99631.28;5049149;28;20033;-55
2023/03/09 05:58:17;;;;;;;24.58;13.13;;;;;;;1.66;100.00;99633.72;5048432;28;20024;-56
2023/03/09 06:00:43;;;;;;;22.85;13.50;;;;;;;1.60;100.00;99633.81;5048940;28;20109;-59
2023/03/09 06:03:08;;;;;;;25.80;14.68;;;;;;;1.58;100.00;99633.84;5031958;28;20038;-58
2023/03/09 06:05:34;;;;;;;25.88;14.70;;;;;;;1.63;100.00;99636.38;5048557;28;20373;-57
2023/03/09 06:07:59;;;;;;;32.50;15.35;;;;;;;1.61;100.00;99636.38;5048913;28;20120;-56
2023/03/09 06:10:25;;;;;;;27.55;14.75;;;;;;;1.49;100.00;99645.22;5047930;28;20416;-58
2023/03/09 06:12:50;;;;;;;27.30;15.07;;;;;;;1.42;100.00;99650.53;5048427;28;20457;-56
2023/03/09 06:15:15;;;;;;;30.25;16.20;;;;;;;1.34;100.00;99653.25;5048369;28;20028;-55
2023/03/09 06:17:41;;;;;;;29.15;15.70;;;;;;;1.58;100.00;99658.94;5048802;28;20025;-57
2023/03/09 06:20:08;;;;;;;29.98;17.00;;;;;;;1.53;100.00;99666.78;5029901;28;20041;-56
2023/03/09 06:22:34;;;;;;;27.70;15.85;;;;;;;1.49;100.00;99670.31;5028969;28;20101;-57
2023/03/09 06:24:59;;;;;;;27.00;15.38;;;;;;;1.53;100.00;99671.16;5028165;28;20113;-56
2023/03/09 06:27:24;;;;;;;30.35;16.65;;;;;;;1.69;100.00;99675.22;5027816;28;20025;-55
2023/03/09 06:29:50;;;;;;;31.35;16.27;;;;;;;1.65;100.00;99689.13;5028855;28;20068;-58
2023/03/09 06:32:15;;;;;;;29.67;16.75;;;;;;;1.67;100.00;99691.69;5010593;28;20056;-58
2023/03/09 06:34:40;;;;;;;29.48;15.80;;;;;;;1.76;100.00;99700.22;5040319;28;20035;-56
2023/03/09 06:37:06;;;;;;;29.52;16.60;;;;;;;1.76;100.00;99708.00;5038449;28;20049;-57
2023/03/09 06:39:31;;;;;;;29.40;16.33;;;;;;;1.80;100.00;99708.81;5027885;28;20056;-56
2023/03/09 06:41:56;;;;;;;27.83;16.70;;;;;;;1.76;100.00;99708.00;5027568;28;20100;-56
2023/03/09 06:44:22;;;;;;;28.80;16.33;;;;;;;1.82;100.00;99711.38;5010601;28;20104;-54
2023/03/09 06:46:47;;;;;;;27.60;16.58;;;;;;;1.80;100.00;99707.97;5028391;28;20057;-57
2023/03/09 06:49:12;;;;;;;28.63;16.63;;;;;;;1.80;100.00;99713.16;5028380;28;20021;-54
2023/03/09 06:51:38;;;;;;;30.60;15.23;;;;;;;1.81;100.00;99720.06;5040858;28;20033;-54
2023/03/09 06:54:03;;;;;;;27.75;15.93;;;;;;;1.80;100.00;99728.75;5047294;28;20020;-57
2023/03/09 06:56:29;;;;;;;30.52;15.63;;;;;;;1.69;100.00;99737.56;5046528;28;20344;-55
2023/03/09 06:58:54;;;;;;;29.55;16.38;;;;;;;1.81;100.00;99741.72;5047031;28;20078;-58
2023/03/09 07:01:20;;;;;;;36.00;16.80;;;;;;;1.76;100.00;99735.72;5046143;28;20095;-56
2023/03/09 07:03:45;;;;;;;32.47;16.50;;;;;;;1.79;100.00;99742.59;5010170;28;20560;-56
2023/03/09 07:06:11;;;;;;;27.13;15.98;;;;;;;1.89;100.00;99733.78;5036716;28;20612;-58
2023/03/09 07:08:36;;;;;;;33.65;15.68;;;;;;;2.00;100.00;99742.28;5047394;28;20435;-55
2023/03/09 07:11:03;;;;;;;31.70;16.60;;;;;;;1.92;100.00;99744.13;5026082;28;20041;-55
2023/03/09 07:13:29;;;;;;;28.00;15.48;;;;;;;2.12;100.00;99753.34;5027259;28;20033;-60
2023/03/09 07:15:55;;;;;;;31.08;16.73;;;;;;;2.18;100.00;99765.38;5027625;28;20087;-54
2023/03/09 07:18:21;;;;;;;68.55;18.67;;;;;;;2.21;100.00;99776.59;5027218;28;20025;-60
2023/03/09 07:20:46;;;;;;;34.65;16.42;;;;;;;2.27;100.00;99780.81;5026544;28;20033;-57
2023/03/09 07:23:11;;;;;;;35.05;17.13;;;;;;;2.19;100.00;99786.13;5027728;28;20060;-55
2023/03/09 07:25:37;;;;;;;26.77;16.15;;;;;;;2.18;100.00;99786.16;5028424;28;20112;-59
2023/03/09 07:28:05;;;;;;;29.65;15.82;;;;;;;2.27;100.00;99781.69;5026904;28;20374;-59
2023/03/09 07:30:31;;;;;;;36.25;18.05;;;;;;;2.25;100.00;99783.44;5026771;28;20067;-57
2023/03/09 07:32:56;;;;;;;25.48;15.02;;;;;;;2.27;100.00;99789.50;5015022;28;20116;-56
2023/03/09 07:35:22;;;;;;;29.95;16.83;;;;;;;2.34;100.00;99797.16;5027143;28;20109;-58
2023/03/09 07:37:47;;;;;;;30.70;15.75;;;;;;;2.30;100.00;99805.91;5027332;28;20017;-55
2023/03/09 07:40:12;;;;;;;37.10;17.20;;;;;;;2.36;100.00;99805.81;5025065;28;20069;-54
2023/03/09 07:42:38;;;;;;;30.90;15.60;;;;;;;2.39;100.00;99816.16;5025710;28;20018;-57
2023/03/09 07:45:05;;;;;;;31.73;16.75;;;;;;;2.50;100.00;99803.81;5026665;28;20040;-53
2023/03/09 07:47:31;;;;;;;30.65;15.75;;;;;;;2.30;100.00;99800.69;5025838;28;20092;-58
2023/03/09 07:49:57;;;;;;;28.58;16.52;;;;;;;2.53;100.00;99803.78;5027748;28;20033;-54
2023/03/09 07:52:24;;;;;;;28.88;16.65;;;;;;;2.74;100.00;99812.06;5027117;28;20373;-55
2023/03/09 07:54:52;;;;;;;29.70;16.40;;;;;;;2.92;100.00;99810.00;5027390;28;20079;-59
2023/03/09 07:57:18;;;;;;;33.80;16.07;;;;;;;3.12;100.00;99798.38;5026377;28;20073;-55
2023/03/09 07:59:44;;;;;;;29.58;16.38;;;;;;;3.20;100.00;99813.84;5027710;28;20272;-55
2023/03/09 08:02:09;;;;;;;25.38;15.32;;;;;;;3.26;100.00;99819.81;5027155;28;20044;-55
2023/03/09 08:04:35;;;;;;;27.02;16.02;;;;;;;3.50;100.00;99828.00;5025418;28;20049;-56
2023/03/09 08:07:00;;;;;;;27.15;16.27;;;;;;;3.41;100.00;99834.22;5027517;28;20076;-54
2023/03/09 08:09:26;;;;;;;28.75;16.00;;;;;;;3.44;100.00;99838.53;5032164;28;20068;-56
2023/03/09 08:11:53;;;;;;;28.98;17.05;;;;;;;3.37;100.00;99832.59;5043028;28;20394;-56
2023/03/09 08:14:18;;;;;;;27.02;15.30;;;;;;;3.34;100.00;99810.97;5027548;28;20030;-58
2023/03/09 08:16:43;;;;;;;26.38;15.90;;;;;;;3.31;100.00;99816.25;5037413;28;20120;-54
2023/03/09 08:19:09;;;;;;;28.38;15.88;;;;;;;3.47;100.00;99822.84;5047162;28;20116;-58
2023/03/09 08:21:34;;;;;;;26.42;15.45;;;;;;;3.46;100.00;99831.53;5047278;28;20075;-51
2023/03/09 08:23:59;;;;;;;28.98;16.13;;;;;;;3.23;100.00;99830.28;5046887;28;20029;-59
2023/03/09 08:26:25;;;;;;;30.85;15.57;;;;;;;3.32;100.00;99834.44;5045603;28;20036;-52
2023/03/09 08:28:50;;;;;;;28.02;16.50;;;;;;;3.33;100.00;99832.66;5046608;28;20021;-53
2023/03/09 08:31:19;;;;;;;24.20;15.38;;;;;;;3.20;100.00;99842.47;5049458;28;20488;-57
2023/03/09 08:33:45;;;;;;;26.02;16.35;;;;;;;3.15;100.00;99853.84;5043311;28;20025;-53
2023/03/09 08:36:15;;;;;;;23.85;15.07;;;;;;;3.17;100.00;99848.63;5049422;28;20033;-55
2023/03/09 08:38:42;;;;;;;23.65;14.63;;;;;;;3.23;100.00;99851.09;5051179;28;20021;-57
2023/03/09 08:41:07;;;;;;;24.38;15.32;;;;;;;3.10;100.00;99853.06;5050246;28;20441;-58
2023/03/09 08:43:33;;;;;;;31.17;17.13;;;;;;;3.28;100.00;99856.19;5049782;28;20024;-55
2023/03/09 08:45:58;;;;;;;27.15;16.45;;;;;;;3.23;100.00;99861.53;5049120;28;20078;-57
2023/03/09 08:48:23;;;;;;;25.63;15.98;;;;;;;3.15;100.00;99872.06;5030446;28;20021;-59
2023/03/09 08:50:49;;;;;;;26.48;15.57;;;;;;;3.10;100.00;99871.28;5050123;28;20017;-54
2023/03/09 08:53:14;;;;;;;25.98;16.17;;;;;;;2.98;100.00;99887.97;5049355;28;20543;-51
2023/03/09 08:55:39;;;;;;;27.60;15.98;;;;;;;2.98;100.00;99893.19;5050739;28;20032;-57
2023/03/09 08:58:05;;;;;;;26.55;16.02;;;;;;;3.18;100.00;99873.75;5050632;28;20043;-60
2023/03/09 09:00:30;;;;;;;29.23;16.27;;;;;;;3.17;100.00;99877.25;5048517;28;20028;-58
2023/03/09 09:02:55;;;;;;;25.05;15.85;;;;;;;3.56;100.00;99904.28;5050075;28;20025;-56
2023/03/09 09:05:21;;;;;;;31.80;16.02;;;;;;;3.49;100.00;99903.56;5049189;28;20045;-54
2023/03/09 09:07:46;;;;;;;30.33;17.52;;;;;;;3.38;100.00;99890.75;5031124;28;20061;-58
2023/03/09 09:10:12;;;;;;;25.02;15.98;;;;;;;3.25;100.00;99880.56;5049239;28;20044;-56
2023/03/09 09:12:37;;;;;;;26.63;16.13;;;;;;;3.32;100.00;99889.13;5050277;28;20025;-56
2023/03/09 09:15:05;;;;;;;29.67;17.05;;;;;;;3.34;100.00;99884.72;5049486;28;20040;-58
2023/03/09 09:17:31;;;;;;;27.20;16.33;;;;;;;3.05;100.00;99882.66;5019452;28;20481;-56
2023/03/09 09:19:56;;;;;;;28.58;16.98;;;;;;;3.03;100.00;99873.16;5044856;28;20029;-57
2023/03/09 09:22:21;;;;;;;31.20;15.95;;;;;;;3.06;100.00;99877.44;5048799;28;20025;-56
2023/03/09 09:24:47;;;;;;;29.95;16.80;;;;;;;3.22;100.00;99888.41;5045660;28;20021;-56
2023/03/09 09:27:12;;;;;;;28.52;15.75;;;;;;;3.30;100.00;99883.06;5047787;28;20029;-56
2023/03/09 09:29:38;;;;;;;30.70;16.70;;;;;;;3.35;100.00;99893.41;5049005;28;20513;-58
2023/03/09 09:32:04;;;;;;;27.60;16.33;;;;;;;3.35;100.00;99912.50;5047565;28;20108;-56
2023/03/09 09:34:31;;;;;;;28.27;16.25;;;;;;;3.47;100.00;99911.41;5031440;28;20116;-59
2023/03/09 09:36:57;;;;;;;29.30;17.15;;;;;;;3.45;100.00;99923.59;5043957;28;20017;-57
2023/03/09 09:39:22;;;;;;;31.08;17.88;;;;;;;3.66;100.00;99932.75;5047811;28;20542;-56
2023/03/09 09:41:51;;;;;;;26.45;16.25;;;;;;;3.68;100.00;99919.69;5047118;28;20064;-54
2023/03/09 09:44:43;;;;;;;27.10;16.48;;;;;;;3.38;100.00;99922.88;5044068;28;20024;-57
2023/03/09 09:47:29;;;;;;;27.15;16.45;;;;;;;3.41;100.00;99925.38;5037377;28;20152;-56
2023/03/09 09:49:57;;;;;;;26.45;16.73;;;;;;;3.44;100.00;99919.28;5037659;28;20025;-59
2023/03/09 09:52:22;;;;;;;28.55;17.77;;;;;;;3.71;100.00;99919.63;5035559;28;20037;-56
2023/03/09 09:54:55;;;;;;;28.60;17.73;;;;;;;3.78;100.00;99921.22;5048570;28;20039;-55
2023/03/09 09:57:23;;;;;;;32.05;17.27;;;;;;;3.84;100.00;99924.56;5032260;28;20060;-60
2023/03/09 10:00:06;;;;;;;26.83;16.60;;;;;;;3.67;100.00;99913.59;5035604;28;20134;-53
2023/03/09 10:02:53;;;;;;;26.55;16.95;;;;;;;3.59;100.00;99906.84;5046101;28;20396;-55
2023/03/09 10:05:39;;;;;;;29.83;16.85;;;;;;;3.75;100.00;99904.78;5045588;28;20025;-62
2023/03/09 10:08:28;;;;;;;28.67;16.63;;;;;;;3.84;100.00;99908.94;5033781;28;20548;-58
2023/03/09 10:10:54;;;;;;;27.45;16.50;;;;;;;3.93;100.00;99906.13;5010594;28;20045;-55
2023/03/09 10:13:29;;;;;;;29.10;17.25;;;;;;;3.93;100.00;99906.13;5010185;28;20033;-53
2023/03/09 10:15:56;;;;;;;28.35;16.85;;;;;;;4.04;100.00;99898.09;5049007;28;20586;-57
2023/03/09 10:18:32;;;;;;;30.33;17.70;;;;;;;3.85;100.00;99898.47;5012234;28;20021;-56
2023/03/09 10:20:59;;;;;;;30.90;16.73;;;;;;;3.68;100.00;99888.41;5041340;28;20017;-55
2023/03/09 10:23:28;;;;;;;26.90;17.30;;;;;;;3.77;100.00;99890.81;5047600;28;20036;-58
2023/03/09 10:26:04;;;;;;;31.92;16.50;;;;;;;3.95;100.00;99886.13;5048362;28;20009;-56
2023/03/09 10:28:35;;;;;;;32.28;17.98;;;;;;;4.08;100.00;99896.25;5024508;28;20045;-60
2023/03/09 10:31:22;;;;;;;29.02;17.30;;;;;;;4.10;100.00;99895.34;5010941;28;20022;-57
2023/03/09 10:33:53;;;;;;;30.35;18.52;;;;;;;4.00;100.00;99910.31;5028986;28;20078;-59
2023/03/09 10:36:29;;;;;;;28.85;16.98;;;;;;;4.14;100.00;99906.56;5031388;28;20025;-57
2023/03/09 10:38:56;;;;;;;27.20;16.60;;;;;;;4.24;100.00;99913.28;5045023;28;20056;-61
2023/03/09 10:41:22;;;;;;;29.45;17.48;;;;;;;4.16;100.00;99905.63;5027921;28;20021;-58
2023/03/09 10:43:48;;;;;;;29.20;17.13;;;;;;;4.21;100.00;99907.28;5011348;28;20116;-60
2023/03/09 10:46:17;;;;;;;28.00;17.13;;;;;;;4.47;100.00;99911.91;5046434;28;20473;-58
2023/03/09 10:48:44;;;;;;;28.10;16.52;;;;;;;4.41;100.00;99917.25;5046104;28;20029;-60
2023/03/09 10:51:34;;;;;;;26.80;16.25;;;;;;;4.52;100.00;99917.00;5040756;28;20064;-58
2023/03/09 10:54:17;;;;;;;29.67;17.70;;;;;;;4.59;100.00;99923.81;5023868;28;20055;-57
2023/03/09 10:56:45;;;;;;;32.40;16.90;;;;;;;4.66;100.00;99924.50;5044515;28;20029;-59
2023/03/09 10:59:21;;;;;;;28.33;17.13;;;;;;;4.39;100.00;99927.72;5009790;28;20026;-58
2023/03/09 11:01:49;;;;;;;30.13;17.55;;;;;;;4.36;100.00;99929.56;5026688;28;20026;-58
2023/03/09 11:04:26;;;;;;;30.02;17.73;;;;;;;4.14;100.00;99927.41;5036802;28;20078;-59
2023/03/09 11:06:55;;;;;;;31.98;17.38;;;;;;;4.08;100.00;99932.75;5039382;28;20119;-60
2023/03/09 11:09:46;;;;;;;32.35;17.65;;;;;;;4.07;100.00;99934.53;5041903;28;20050;-58
2023/03/09 11:12:35;;;;;;;30.45;16.85;;;;;;;3.90;100.00;99929.66;5038670;28;20511;-58
2023/03/09 11:15:02;;;;;;;37.75;19.02;;;;;;;3.67;100.00;99917.94;5045695;28;20031;-56
2023/03/09 11:17:51;;;;;;;29.38;17.67;;;;;;;3.57;100.00;99927.72;5046776;28;20132;-57
2023/03/09 11:20:35;;;;;;;37.42;19.17;;;;;;;3.76;100.00;99922.97;5041566;28;20037;-59